EXS129W EGGW-LPFR
Flight info
| Callsign | EXS129W |
|---|---|
| Flight time | 2h 27m |
| Altitude | 35000 |
| Route | RODNI N27 ICTAM Q63 CPT Y321 PEPIS Q41 SAM M195 LORKU DCT BALDA DCT ABUPI/N0453F370 DCT ALAGU |
| Aircraft | A21N/M-SDE2E3FGHIRWXY/LB1 |
Departure
| Time | 2026-05-07 08:14 |
|---|---|
| Airport | London Luton Airport (EGGW) |
Arrival
| Time | 2026-05-07 10:42 |
|---|---|
| Airport | Faro - Gago Coutinho International Airport (LPFR) |
| Time | Latitude | Longitude | Altitude | Speed | Heading |
|---|---|---|---|---|---|
| 2026-05-07 07:40 | 51.88097 | -0.37326 | 534 ft | 0 kts | 341° |
| 2026-05-07 08:06 | 51.88086 | -0.37319 | 534 ft | 4 kts | 341° |
| 2026-05-07 08:06 | 51.88060 | -0.37305 | 534 ft | 4 kts | 341° |
| 2026-05-07 08:06 | 51.88040 | -0.37295 | 534 ft | 4 kts | 312° |
| 2026-05-07 08:06 | 51.88032 | -0.37265 | 534 ft | 4 kts | 250° |
| 2026-05-07 08:07 | 51.88040 | -0.37227 | 534 ft | 4 kts | 252° |
| 2026-05-07 08:07 | 51.88048 | -0.37188 | 534 ft | 4 kts | 244° |
| 2026-05-07 08:07 | 51.88061 | -0.37158 | 534 ft | 4 kts | 185° |
| 2026-05-07 08:07 | 51.88086 | -0.37162 | 534 ft | 4 kts | 161° |
| 2026-05-07 08:08 | 51.88107 | -0.37173 | 534 ft | 1 kts | 162° |
| 2026-05-07 08:08 | 51.88107 | -0.37174 | 534 ft | 0 kts | 162° |
| 2026-05-07 08:10 | 51.88107 | -0.37173 | 534 ft | 1 kts | 162° |
| 2026-05-07 08:10 | 51.88050 | -0.37143 | 534 ft | 16 kts | 161° |
| 2026-05-07 08:11 | 51.87924 | -0.37076 | 534 ft | 22 kts | 162° |
| 2026-05-07 08:11 | 51.87763 | -0.36990 | 534 ft | 26 kts | 161° |
| 2026-05-07 08:11 | 51.87628 | -0.36955 | 534 ft | 16 kts | 206° |
| 2026-05-07 08:11 | 51.87609 | -0.37071 | 534 ft | 15 kts | 259° |
| 2026-05-07 08:12 | 51.87578 | -0.37293 | 534 ft | 24 kts | 264° |
| 2026-05-07 08:12 | 51.87528 | -0.37499 | 536 ft | 20 kts | 228° |
| 2026-05-07 08:12 | 51.87471 | -0.37730 | 536 ft | 24 kts | 253° |
| 2026-05-07 08:12 | 51.87419 | -0.37996 | 536 ft | 16 kts | 245° |
| 2026-05-07 08:13 | 51.87319 | -0.38105 | 534 ft | 20 kts | 197° |
| 2026-05-07 08:13 | 51.87198 | -0.38253 | 528 ft | 14 kts | 234° |
| 2026-05-07 08:13 | 51.87208 | -0.38306 | 527 ft | 3 kts | 9° |
| 2026-05-07 08:13 | 51.87212 | -0.38282 | 527 ft | 3 kts | 71° |
| 2026-05-07 08:14 | 51.87213 | -0.38280 | 527 ft | 0 kts | 71° |
| 2026-05-07 08:14 | 51.87247 | -0.38108 | 532 ft | 53 kts | 73° |
| 2026-05-07 08:14 | 51.87443 | -0.36954 | 539 ft | 153 kts | 74° |
| 2026-05-07 08:14 | 51.87777 | -0.35071 | 1204 ft | 178 kts | 74° |
| 2026-05-07 08:15 | 51.88137 | -0.33156 | 2605 ft | 175 kts | 73° |
| 2026-05-07 08:15 | 51.88499 | -0.31182 | 3476 ft | 197 kts | 74° |
| 2026-05-07 08:15 | 51.88909 | -0.28823 | 3832 ft | 243 kts | 74° |
| 2026-05-07 08:15 | 51.89362 | -0.26022 | 3984 ft | 259 kts | 82° |
| 2026-05-07 08:16 | 51.89180 | -0.23144 | 4000 ft | 262 kts | 111° |
| 2026-05-07 08:16 | 51.88156 | -0.20775 | 4080 ft | 266 kts | 141° |
| 2026-05-07 08:16 | 51.86469 | -0.19565 | 4688 ft | 272 kts | 173° |
| 2026-05-07 08:16 | 51.84654 | -0.19953 | 6032 ft | 270 kts | 204° |
| 2026-05-07 08:17 | 51.83127 | -0.21690 | 7364 ft | 273 kts | 231° |
| 2026-05-07 08:17 | 51.82261 | -0.24402 | 8581 ft | 276 kts | 259° |
| 2026-05-07 08:17 | 51.82235 | -0.27501 | 9779 ft | 280 kts | 279° |
| 2026-05-07 08:17 | 51.82505 | -0.30672 | 10767 ft | 294 kts | 276° |
| 2026-05-07 08:18 | 51.82555 | -0.34112 | 11346 ft | 318 kts | 267° |
| 2026-05-07 08:18 | 51.82286 | -0.37785 | 12001 ft | 337 kts | 260° |
| 2026-05-07 08:18 | 51.81803 | -0.41520 | 12971 ft | 343 kts | 257° |
| 2026-05-07 08:18 | 51.81203 | -0.45216 | 13984 ft | 347 kts | 250° |
| 2026-05-07 08:19 | 51.80024 | -0.48601 | 14944 ft | 351 kts | 230° |
| 2026-05-07 08:19 | 51.78174 | -0.51201 | 15855 ft | 356 kts | 215° |
| 2026-05-07 08:19 | 51.76089 | -0.53392 | 16778 ft | 360 kts | 212° |
| 2026-05-07 08:19 | 51.73945 | -0.55525 | 17653 ft | 365 kts | 212° |
| 2026-05-07 08:20 | 51.71774 | -0.57701 | 18555 ft | 368 kts | 213° |
| 2026-05-07 08:20 | 51.69595 | -0.59942 | 19316 ft | 375 kts | 213° |
| 2026-05-07 08:20 | 51.67396 | -0.62240 | 20053 ft | 380 kts | 214° |
| 2026-05-07 08:20 | 51.65197 | -0.64554 | 20781 ft | 385 kts | 213° |
| 2026-05-07 08:21 | 51.62938 | -0.66932 | 21507 ft | 391 kts | 213° |
| 2026-05-07 08:21 | 51.60641 | -0.69339 | 22177 ft | 397 kts | 214° |
| 2026-05-07 08:21 | 51.58328 | -0.71781 | 22866 ft | 401 kts | 213° |
| 2026-05-07 08:21 | 51.55971 | -0.74249 | 23561 ft | 406 kts | 213° |
| 2026-05-07 08:22 | 51.53586 | -0.76735 | 24205 ft | 411 kts | 213° |
| 2026-05-07 08:22 | 51.51182 | -0.79251 | 24798 ft | 415 kts | 213° |
| 2026-05-07 08:22 | 51.48757 | -0.81793 | 25401 ft | 418 kts | 213° |
| 2026-05-07 08:22 | 51.46298 | -0.84361 | 25985 ft | 423 kts | 213° |
| 2026-05-07 08:23 | 51.43822 | -0.86938 | 26536 ft | 427 kts | 213° |
| 2026-05-07 08:23 | 51.41320 | -0.89551 | 27071 ft | 430 kts | 213° |
| 2026-05-07 08:23 | 51.38839 | -0.92133 | 27591 ft | 433 kts | 213° |
| 2026-05-07 08:23 | 51.36302 | -0.94768 | 28059 ft | 435 kts | 213° |
| 2026-05-07 08:24 | 51.33752 | -0.97415 | 28487 ft | 439 kts | 213° |
| 2026-05-07 08:24 | 51.31183 | -1.00069 | 28932 ft | 441 kts | 213° |
| 2026-05-07 08:24 | 51.28598 | -1.02740 | 29269 ft | 445 kts | 213° |
| 2026-05-07 08:24 | 51.25994 | -1.05424 | 29700 ft | 447 kts | 212° |
| 2026-05-07 08:25 | 51.23370 | -1.08116 | 30133 ft | 448 kts | 212° |
| 2026-05-07 08:25 | 51.20740 | -1.10821 | 30479 ft | 451 kts | 212° |
| 2026-05-07 08:25 | 51.18093 | -1.13535 | 30874 ft | 454 kts | 212° |
| 2026-05-07 08:25 | 51.15458 | -1.16239 | 31347 ft | 456 kts | 212° |
| 2026-05-07 08:26 | 51.10137 | -1.21693 | 32312 ft | 454 kts | 213° |
| 2026-05-07 08:26 | 51.07483 | -1.24413 | 32835 ft | 454 kts | 212° |
| 2026-05-07 08:26 | 51.04831 | -1.27124 | 33296 ft | 452 kts | 212° |
| 2026-05-07 08:27 | 51.02182 | -1.29821 | 33753 ft | 451 kts | 212° |
| 2026-05-07 08:27 | 50.99546 | -1.32493 | 34249 ft | 449 kts | 212° |
| 2026-05-07 08:27 | 50.96912 | -1.35155 | 34608 ft | 449 kts | 212° |
| 2026-05-07 08:27 | 50.94316 | -1.37788 | 34947 ft | 449 kts | 212° |
| 2026-05-07 08:28 | 50.91688 | -1.40450 | 35056 ft | 448 kts | 212° |
| 2026-05-07 08:28 | 50.89064 | -1.43102 | 35074 ft | 447 kts | 213° |
| 2026-05-07 08:28 | 50.83845 | -1.48379 | 35066 ft | 447 kts | 213° |
| 2026-05-07 08:29 | 50.78626 | -1.53647 | 35076 ft | 444 kts | 213° |
| 2026-05-07 08:29 | 50.73414 | -1.58864 | 35074 ft | 443 kts | 213° |
| 2026-05-07 08:30 | 50.68411 | -1.63896 | 35074 ft | 443 kts | 213° |
| 2026-05-07 08:30 | 50.63223 | -1.69078 | 35069 ft | 441 kts | 213° |
| 2026-05-07 08:31 | 50.58041 | -1.74230 | 35061 ft | 440 kts | 213° |
| 2026-05-07 08:31 | 50.52898 | -1.79336 | 35049 ft | 437 kts | 213° |
| 2026-05-07 08:32 | 50.47786 | -1.84422 | 35042 ft | 437 kts | 213° |
| 2026-05-07 08:32 | 50.42577 | -1.89335 | 35040 ft | 438 kts | 205° |
| 2026-05-07 08:33 | 50.37013 | -1.93271 | 35052 ft | 439 kts | 205° |
| 2026-05-07 08:33 | 50.31436 | -1.97181 | 35056 ft | 439 kts | 205° |
| 2026-05-07 08:34 | 50.25897 | -2.01088 | 35050 ft | 440 kts | 205° |
| 2026-05-07 08:34 | 50.20311 | -2.05043 | 35054 ft | 440 kts | 205° |
| 2026-05-07 08:35 | 50.14736 | -2.08976 | 35057 ft | 441 kts | 206° |
| 2026-05-07 08:35 | 50.09139 | -2.12927 | 35068 ft | 442 kts | 205° |
| 2026-05-07 08:36 | 50.03539 | -2.16844 | 35064 ft | 441 kts | 205° |
| 2026-05-07 08:36 | 49.97986 | -2.20714 | 35057 ft | 440 kts | 205° |
| 2026-05-07 08:37 | 49.92408 | -2.24612 | 35042 ft | 440 kts | 206° |
| 2026-05-07 08:37 | 49.86827 | -2.28501 | 35042 ft | 440 kts | 205° |
| 2026-05-07 08:38 | 49.81263 | -2.32330 | 35046 ft | 440 kts | 205° |
| 2026-05-07 08:38 | 49.75670 | -2.36180 | 35043 ft | 440 kts | 205° |
| 2026-05-07 08:39 | 49.70082 | -2.40057 | 35046 ft | 440 kts | 205° |
| 2026-05-07 08:39 | 49.64490 | -2.43895 | 35045 ft | 439 kts | 205° |
| 2026-05-07 08:40 | 49.58900 | -2.47723 | 35045 ft | 440 kts | 205° |
| 2026-05-07 08:40 | 49.53347 | -2.51536 | 35054 ft | 440 kts | 205° |
| 2026-05-07 08:41 | 49.47746 | -2.55364 | 35046 ft | 439 kts | 205° |
| 2026-05-07 08:41 | 49.42154 | -2.59163 | 35043 ft | 438 kts | 205° |
| 2026-05-07 08:42 | 49.36597 | -2.62938 | 35042 ft | 439 kts | 205° |
| 2026-05-07 08:42 | 49.31047 | -2.66708 | 35044 ft | 439 kts | 205° |
| 2026-05-07 08:43 | 49.25453 | -2.70473 | 35045 ft | 440 kts | 205° |
| 2026-05-07 08:43 | 49.19851 | -2.74248 | 35045 ft | 439 kts | 205° |
| 2026-05-07 08:44 | 49.14257 | -2.78001 | 35045 ft | 439 kts | 205° |
| 2026-05-07 08:44 | 49.08726 | -2.81744 | 35040 ft | 439 kts | 205° |
| 2026-05-07 08:45 | 49.03243 | -2.85399 | 35043 ft | 438 kts | 204° |
| 2026-05-07 08:45 | 48.97650 | -2.89107 | 35030 ft | 439 kts | 205° |
| 2026-05-07 08:46 | 48.92059 | -2.92830 | 35027 ft | 439 kts | 205° |
| 2026-05-07 08:46 | 48.86523 | -2.96508 | 35015 ft | 437 kts | 205° |
| 2026-05-07 08:47 | 48.80952 | -3.00209 | 35020 ft | 438 kts | 205° |
| 2026-05-07 08:47 | 48.75364 | -3.03898 | 35021 ft | 437 kts | 205° |
| 2026-05-07 08:48 | 48.69779 | -3.07596 | 35011 ft | 438 kts | 205° |
| 2026-05-07 08:48 | 48.64203 | -3.11267 | 35013 ft | 438 kts | 205° |
| 2026-05-07 08:49 | 48.58648 | -3.14917 | 35021 ft | 439 kts | 205° |
| 2026-05-07 08:49 | 48.53043 | -3.18579 | 35023 ft | 438 kts | 204° |
| 2026-05-07 08:50 | 48.47448 | -3.22204 | 35020 ft | 438 kts | 205° |
| 2026-05-07 08:50 | 48.41853 | -3.25871 | 35016 ft | 437 kts | 205° |
| 2026-05-07 08:51 | 48.36270 | -3.29500 | 35016 ft | 437 kts | 204° |
| 2026-05-07 08:51 | 48.30725 | -3.33079 | 35017 ft | 437 kts | 205° |
| 2026-05-07 08:52 | 48.25146 | -3.36700 | 35023 ft | 437 kts | 204° |
| 2026-05-07 08:52 | 48.19548 | -3.40322 | 35030 ft | 438 kts | 205° |
| 2026-05-07 08:53 | 48.13955 | -3.43915 | 35025 ft | 437 kts | 205° |
| 2026-05-07 08:53 | 48.08398 | -3.47473 | 35023 ft | 437 kts | 204° |
| 2026-05-07 08:54 | 48.02813 | -3.51046 | 35026 ft | 438 kts | 204° |
| 2026-05-07 08:54 | 47.97212 | -3.54637 | 35033 ft | 438 kts | 204° |
| 2026-05-07 08:55 | 47.91600 | -3.58211 | 35034 ft | 438 kts | 204° |
| 2026-05-07 08:55 | 47.86048 | -3.61747 | 35026 ft | 436 kts | 204° |
| 2026-05-07 08:56 | 47.80489 | -3.65279 | 35000 ft | 433 kts | 204° |
| 2026-05-07 08:56 | 47.74949 | -3.68789 | 34994 ft | 432 kts | 204° |
| 2026-05-07 08:57 | 47.69401 | -3.72298 | 35005 ft | 435 kts | 204° |
| 2026-05-07 08:57 | 47.63862 | -3.75791 | 35018 ft | 436 kts | 204° |
| 2026-05-07 08:58 | 47.58264 | -3.79300 | 35029 ft | 437 kts | 204° |
| 2026-05-07 08:58 | 47.52672 | -3.82816 | 35031 ft | 437 kts | 204° |
| 2026-05-07 08:59 | 47.47086 | -3.86328 | 35023 ft | 436 kts | 204° |
| 2026-05-07 08:59 | 47.41490 | -3.89790 | 35018 ft | 436 kts | 204° |
| 2026-05-07 09:00 | 47.36050 | -3.93182 | 35016 ft | 435 kts | 204° |
| 2026-05-07 09:00 | 47.30474 | -3.96651 | 35017 ft | 435 kts | 204° |
| 2026-05-07 09:01 | 47.24893 | -4.00097 | 35019 ft | 434 kts | 204° |
| 2026-05-07 09:01 | 47.19325 | -4.03554 | 35023 ft | 434 kts | 204° |
| 2026-05-07 09:02 | 47.13808 | -4.06972 | 35010 ft | 433 kts | 204° |
| 2026-05-07 09:02 | 47.08262 | -4.10386 | 35013 ft | 433 kts | 203° |
| 2026-05-07 09:03 | 47.02713 | -4.13775 | 35013 ft | 432 kts | 204° |
| 2026-05-07 09:03 | 46.97181 | -4.17185 | 35001 ft | 431 kts | 204° |
| 2026-05-07 09:04 | 46.91647 | -4.20564 | 35001 ft | 431 kts | 203° |
| 2026-05-07 09:04 | 46.86151 | -4.23900 | 34996 ft | 429 kts | 193° |
| 2026-05-07 09:05 | 46.80573 | -4.27083 | 35004 ft | 432 kts | 203° |
| 2026-05-07 09:05 | 46.75049 | -4.30525 | 35019 ft | 432 kts | 204° |
| 2026-05-07 09:06 | 46.69508 | -4.33954 | 35017 ft | 432 kts | 203° |
| 2026-05-07 09:06 | 46.64006 | -4.37297 | 35041 ft | 431 kts | 203° |
| 2026-05-07 09:07 | 46.58478 | -4.40658 | 35020 ft | 432 kts | 203° |
| 2026-05-07 09:07 | 46.52948 | -4.44003 | 35015 ft | 430 kts | 203° |
| 2026-05-07 09:08 | 46.47427 | -4.47310 | 35008 ft | 429 kts | 203° |
| 2026-05-07 09:08 | 46.41912 | -4.50625 | 35001 ft | 429 kts | 203° |
| 2026-05-07 09:09 | 46.36426 | -4.53924 | 35010 ft | 429 kts | 203° |
| 2026-05-07 09:09 | 46.30904 | -4.57229 | 35008 ft | 429 kts | 203° |
| 2026-05-07 09:10 | 46.25383 | -4.60513 | 35007 ft | 428 kts | 202° |
| 2026-05-07 09:10 | 46.19885 | -4.63798 | 34985 ft | 427 kts | 203° |
| 2026-05-07 09:11 | 46.14440 | -4.67034 | 34970 ft | 425 kts | 202° |
| 2026-05-07 09:11 | 46.08954 | -4.70261 | 34969 ft | 426 kts | 202° |
| 2026-05-07 09:12 | 46.03476 | -4.73482 | 34974 ft | 426 kts | 203° |
| 2026-05-07 09:12 | 45.97999 | -4.76723 | 34966 ft | 425 kts | 202° |
| 2026-05-07 09:13 | 45.92557 | -4.79928 | 34984 ft | 427 kts | 203° |
| 2026-05-07 09:13 | 45.87050 | -4.83182 | 34989 ft | 428 kts | 202° |
| 2026-05-07 09:14 | 45.81523 | -4.86396 | 35005 ft | 429 kts | 202° |
| 2026-05-07 09:14 | 45.76001 | -4.89616 | 35001 ft | 428 kts | 203° |
| 2026-05-07 09:15 | 45.70688 | -4.92713 | 35000 ft | 429 kts | 202° |
| 2026-05-07 09:15 | 45.65176 | -4.95927 | 34986 ft | 428 kts | 202° |
| 2026-05-07 09:16 | 45.59669 | -4.99128 | 34983 ft | 427 kts | 202° |
| 2026-05-07 09:16 | 45.54169 | -5.02305 | 34983 ft | 427 kts | 202° |
| 2026-05-07 09:17 | 45.48642 | -5.05508 | 34999 ft | 429 kts | 202° |
| 2026-05-07 09:17 | 45.43154 | -5.08684 | 34997 ft | 429 kts | 202° |
| 2026-05-07 09:18 | 45.37640 | -5.11864 | 34976 ft | 425 kts | 202° |
| 2026-05-07 09:18 | 45.32162 | -5.14996 | 34962 ft | 424 kts | 202° |
| 2026-05-07 09:19 | 45.26687 | -5.18129 | 34954 ft | 424 kts | 202° |
| 2026-05-07 09:19 | 45.21224 | -5.21247 | 34962 ft | 422 kts | 202° |
| 2026-05-07 09:20 | 45.15812 | -5.24348 | 34942 ft | 422 kts | 202° |
| 2026-05-07 09:20 | 45.10365 | -5.27453 | 34941 ft | 422 kts | 202° |
| 2026-05-07 09:21 | 45.04917 | -5.30554 | 34944 ft | 423 kts | 202° |
| 2026-05-07 09:21 | 44.99438 | -5.33648 | 34950 ft | 424 kts | 202° |
| 2026-05-07 09:22 | 44.94006 | -5.36732 | 34952 ft | 423 kts | 202° |
| 2026-05-07 09:22 | 44.88544 | -5.39809 | 34939 ft | 422 kts | 202° |
| 2026-05-07 09:23 | 44.83087 | -5.42901 | 34942 ft | 423 kts | 202° |
| 2026-05-07 09:23 | 44.77622 | -5.45965 | 34954 ft | 424 kts | 202° |
| 2026-05-07 09:24 | 44.72194 | -5.49034 | 34947 ft | 422 kts | 202° |
| 2026-05-07 09:24 | 44.66752 | -5.52091 | 34927 ft | 421 kts | 202° |
| 2026-05-07 09:25 | 44.61315 | -5.55127 | 34928 ft | 422 kts | 202° |
| 2026-05-07 09:25 | 44.55899 | -5.58353 | 34933 ft | 422 kts | 204° |
| 2026-05-07 09:26 | 44.50530 | -5.61738 | 34943 ft | 424 kts | 204° |
| 2026-05-07 09:26 | 44.45174 | -5.65064 | 34946 ft | 423 kts | 204° |
| 2026-05-07 09:27 | 44.39783 | -5.68385 | 34947 ft | 424 kts | 204° |
| 2026-05-07 09:28 | 44.31688 | -5.73358 | 34940 ft | 424 kts | 204° |
| 2026-05-07 09:28 | 44.26275 | -5.76658 | 34956 ft | 425 kts | 204° |
| 2026-05-07 09:29 | 44.20905 | -5.79951 | 34952 ft | 425 kts | 204° |
| 2026-05-07 09:29 | 44.15498 | -5.83264 | 34948 ft | 423 kts | 204° |
| 2026-05-07 09:30 | 44.10109 | -5.86541 | 34937 ft | 423 kts | 204° |
| 2026-05-07 09:30 | 44.04884 | -5.89721 | 34951 ft | 424 kts | 204° |
| 2026-05-07 09:31 | 43.99476 | -5.92987 | 34945 ft | 423 kts | 204° |
| 2026-05-07 09:31 | 43.94098 | -5.96235 | 34951 ft | 424 kts | 204° |
| 2026-05-07 09:32 | 43.88691 | -5.99507 | 34947 ft | 424 kts | 204° |
| 2026-05-07 09:32 | 43.83281 | -6.02769 | 34947 ft | 424 kts | 204° |
| 2026-05-07 09:33 | 43.77859 | -6.06031 | 34957 ft | 425 kts | 204° |
| 2026-05-07 09:33 | 43.72427 | -6.09300 | 34951 ft | 425 kts | 204° |
| 2026-05-07 09:34 | 43.67047 | -6.12542 | 34944 ft | 424 kts | 204° |
| 2026-05-07 09:34 | 43.61635 | -6.15783 | 34928 ft | 425 kts | 204° |
| 2026-05-07 09:35 | 43.56216 | -6.19003 | 34933 ft | 424 kts | 203° |
| 2026-05-07 09:35 | 43.50782 | -6.22240 | 34945 ft | 427 kts | 203° |
| 2026-05-07 09:36 | 43.45363 | -6.25465 | 34951 ft | 427 kts | 203° |
| 2026-05-07 09:36 | 43.39922 | -6.28686 | 34937 ft | 426 kts | 204° |
| 2026-05-07 09:37 | 43.34483 | -6.31904 | 34927 ft | 424 kts | 204° |
| 2026-05-07 09:37 | 43.29065 | -6.35101 | 34920 ft | 423 kts | 203° |
| 2026-05-07 09:38 | 43.23683 | -6.38270 | 34907 ft | 423 kts | 204° |
| 2026-05-07 09:38 | 43.18284 | -6.41459 | 34901 ft | 423 kts | 204° |
| 2026-05-07 09:39 | 43.12887 | -6.44637 | 34896 ft | 422 kts | 203° |
| 2026-05-07 09:39 | 43.07477 | -6.47812 | 34909 ft | 424 kts | 204° |
| 2026-05-07 09:40 | 43.02041 | -6.50996 | 34925 ft | 427 kts | 204° |
| 2026-05-07 09:40 | 42.96608 | -6.54164 | 34939 ft | 428 kts | 203° |
| 2026-05-07 09:41 | 42.91121 | -6.57351 | 34950 ft | 429 kts | 204° |
| 2026-05-07 09:41 | 42.85629 | -6.60570 | 34950 ft | 430 kts | 204° |
| 2026-05-07 09:42 | 42.80107 | -6.63745 | 34958 ft | 431 kts | 204° |
| 2026-05-07 09:42 | 42.74630 | -6.66946 | 34957 ft | 431 kts | 204° |
| 2026-05-07 09:43 | 42.69116 | -6.70152 | 34950 ft | 430 kts | 204° |
| 2026-05-07 09:43 | 42.63612 | -6.73337 | 34938 ft | 430 kts | 204° |
| 2026-05-07 09:44 | 42.58106 | -6.76487 | 34933 ft | 429 kts | 204° |
| 2026-05-07 09:44 | 42.52622 | -6.79631 | 34903 ft | 426 kts | 203° |
| 2026-05-07 09:45 | 42.47202 | -6.82765 | 34901 ft | 426 kts | 204° |
| 2026-05-07 09:45 | 42.41925 | -6.85805 | 34898 ft | 427 kts | 204° |
| 2026-05-07 09:46 | 42.36442 | -6.88920 | 34901 ft | 428 kts | 204° |
| 2026-05-07 09:46 | 42.30936 | -6.92061 | 34921 ft | 430 kts | 204° |
| 2026-05-07 09:47 | 42.25402 | -6.95206 | 34923 ft | 432 kts | 204° |
| 2026-05-07 09:47 | 42.19885 | -6.98334 | 34936 ft | 434 kts | 204° |
| 2026-05-07 09:48 | 42.14076 | -7.00481 | 34926 ft | 437 kts | 188° |
| 2026-05-07 09:48 | 42.08035 | -7.01416 | 34928 ft | 438 kts | 188° |
| 2026-05-07 09:49 | 42.01968 | -7.02365 | 34933 ft | 439 kts | 188° |
| 2026-05-07 09:49 | 41.95888 | -7.03313 | 34922 ft | 441 kts | 189° |
| 2026-05-07 09:50 | 41.89809 | -7.04283 | 34928 ft | 443 kts | 189° |
| 2026-05-07 09:50 | 41.83703 | -7.05261 | 34922 ft | 443 kts | 189° |
| 2026-05-07 09:51 | 41.77569 | -7.06235 | 34937 ft | 444 kts | 188° |
| 2026-05-07 09:51 | 41.71428 | -7.07196 | 34925 ft | 444 kts | 188° |
| 2026-05-07 09:52 | 41.65296 | -7.08162 | 34924 ft | 444 kts | 189° |
| 2026-05-07 09:52 | 41.59165 | -7.09139 | 34925 ft | 444 kts | 189° |
| 2026-05-07 09:53 | 41.53082 | -7.10097 | 34914 ft | 443 kts | 189° |
| 2026-05-07 09:53 | 41.46971 | -7.11076 | 34903 ft | 443 kts | 189° |
| 2026-05-07 09:54 | 41.40863 | -7.12015 | 34897 ft | 442 kts | 189° |
| 2026-05-07 09:54 | 41.35793 | -7.12807 | 34894 ft | 441 kts | 189° |
| 2026-05-07 09:55 | 41.28687 | -7.13912 | 34903 ft | 443 kts | 189° |
| 2026-05-07 09:55 | 41.22558 | -7.14863 | 34907 ft | 445 kts | 189° |
| 2026-05-07 09:56 | 41.17445 | -7.15657 | 34907 ft | 445 kts | 189° |
| 2026-05-07 09:56 | 41.11288 | -7.16614 | 34904 ft | 445 kts | 189° |
| 2026-05-07 09:57 | 41.05129 | -7.17565 | 34912 ft | 447 kts | 189° |
| 2026-05-07 09:57 | 40.98956 | -7.18518 | 34908 ft | 447 kts | 189° |
| 2026-05-07 09:58 | 40.92764 | -7.19477 | 34916 ft | 449 kts | 189° |
| 2026-05-07 09:58 | 40.86583 | -7.20430 | 34929 ft | 452 kts | 189° |
| 2026-05-07 09:59 | 40.80350 | -7.21379 | 34927 ft | 451 kts | 189° |
| 2026-05-07 09:59 | 40.74091 | -7.22333 | 34932 ft | 454 kts | 189° |
| 2026-05-07 10:00 | 40.67813 | -7.23316 | 34932 ft | 455 kts | 189° |
| 2026-05-07 10:00 | 40.61755 | -7.24240 | 34927 ft | 454 kts | 189° |
| 2026-05-07 10:01 | 40.55466 | -7.25180 | 34935 ft | 456 kts | 189° |
| 2026-05-07 10:01 | 40.49207 | -7.26131 | 34922 ft | 456 kts | 189° |
| 2026-05-07 10:02 | 40.42917 | -7.27095 | 34905 ft | 454 kts | 189° |
| 2026-05-07 10:02 | 40.36636 | -7.28044 | 34902 ft | 454 kts | 189° |
| 2026-05-07 10:03 | 40.30358 | -7.29001 | 34894 ft | 455 kts | 189° |
| 2026-05-07 10:03 | 40.24056 | -7.29959 | 34899 ft | 456 kts | 189° |
| 2026-05-07 10:04 | 40.17755 | -7.30909 | 34895 ft | 457 kts | 189° |
| 2026-05-07 10:04 | 40.11428 | -7.31861 | 34904 ft | 458 kts | 189° |
| 2026-05-07 10:05 | 40.05139 | -7.32808 | 34895 ft | 459 kts | 189° |
| 2026-05-07 10:05 | 39.98775 | -7.33757 | 34916 ft | 462 kts | 189° |
| 2026-05-07 10:06 | 39.92376 | -7.34705 | 34919 ft | 463 kts | 190° |
| 2026-05-07 10:06 | 39.85968 | -7.35667 | 34927 ft | 464 kts | 190° |
| 2026-05-07 10:07 | 39.79590 | -7.36615 | 34930 ft | 464 kts | 190° |
| 2026-05-07 10:07 | 39.73161 | -7.37583 | 34947 ft | 467 kts | 190° |
| 2026-05-07 10:08 | 39.66703 | -7.38538 | 34945 ft | 465 kts | 190° |
| 2026-05-07 10:08 | 39.60277 | -7.39480 | 34931 ft | 464 kts | 190° |
| 2026-05-07 10:09 | 39.53863 | -7.40421 | 34931 ft | 464 kts | 191° |
| 2026-05-07 10:09 | 39.47506 | -7.41372 | 34930 ft | 463 kts | 191° |
| 2026-05-07 10:10 | 39.41113 | -7.42324 | 34923 ft | 462 kts | 191° |
| 2026-05-07 10:10 | 39.34714 | -7.43273 | 34929 ft | 463 kts | 191° |
| 2026-05-07 10:11 | 39.28302 | -7.44203 | 34932 ft | 464 kts | 190° |
| 2026-05-07 10:11 | 39.21888 | -7.45138 | 34931 ft | 463 kts | 191° |
| 2026-05-07 10:12 | 39.15518 | -7.46064 | 34936 ft | 463 kts | 191° |
| 2026-05-07 10:12 | 39.09117 | -7.47008 | 34927 ft | 462 kts | 191° |
| 2026-05-07 10:13 | 39.02733 | -7.47944 | 34911 ft | 461 kts | 191° |
| 2026-05-07 10:13 | 38.96351 | -7.48877 | 34903 ft | 462 kts | 191° |
| 2026-05-07 10:14 | 38.89959 | -7.49795 | 34921 ft | 462 kts | 191° |
| 2026-05-07 10:14 | 38.83618 | -7.50704 | 34910 ft | 461 kts | 191° |
| 2026-05-07 10:15 | 38.77230 | -7.51637 | 34918 ft | 462 kts | 192° |
| 2026-05-07 10:15 | 38.70857 | -7.52553 | 34409 ft | 459 kts | 192° |
| 2026-05-07 10:15 | 38.67779 | -7.52990 | 33600 ft | 460 kts | 192° |
| 2026-05-07 10:16 | 38.64592 | -7.53445 | 32581 ft | 462 kts | 192° |
| 2026-05-07 10:16 | 38.61380 | -7.53910 | 31356 ft | 467 kts | 192° |
| 2026-05-07 10:16 | 38.58124 | -7.54380 | 30073 ft | 474 kts | 193° |
| 2026-05-07 10:16 | 38.54848 | -7.54854 | 29073 ft | 473 kts | 193° |
| 2026-05-07 10:17 | 38.51600 | -7.55326 | 28378 ft | 465 kts | 193° |
| 2026-05-07 10:17 | 38.48427 | -7.55781 | 27640 ft | 454 kts | 192° |
| 2026-05-07 10:17 | 38.45357 | -7.56228 | 26899 ft | 448 kts | 192° |
| 2026-05-07 10:17 | 38.42270 | -7.56683 | 26182 ft | 440 kts | 192° |
| 2026-05-07 10:18 | 38.39253 | -7.57128 | 25429 ft | 433 kts | 191° |
| 2026-05-07 10:18 | 38.36284 | -7.57562 | 24793 ft | 426 kts | 191° |
| 2026-05-07 10:18 | 38.33367 | -7.57981 | 24094 ft | 417 kts | 190° |
| 2026-05-07 10:18 | 38.30505 | -7.58391 | 23384 ft | 410 kts | 190° |
| 2026-05-07 10:19 | 38.27691 | -7.58792 | 22615 ft | 405 kts | 189° |
| 2026-05-07 10:19 | 38.24913 | -7.59196 | 21806 ft | 399 kts | 190° |
| 2026-05-07 10:19 | 38.22178 | -7.59601 | 21013 ft | 393 kts | 189° |
| 2026-05-07 10:19 | 38.19483 | -7.59968 | 20195 ft | 387 kts | 189° |
| 2026-05-07 10:20 | 38.16850 | -7.60332 | 19504 ft | 381 kts | 189° |
| 2026-05-07 10:20 | 38.14225 | -7.60699 | 18763 ft | 377 kts | 188° |
| 2026-05-07 10:20 | 38.11639 | -7.61064 | 18027 ft | 372 kts | 189° |
| 2026-05-07 10:20 | 38.09088 | -7.61413 | 17314 ft | 367 kts | 186° |
| 2026-05-07 10:21 | 38.06540 | -7.61471 | 16632 ft | 364 kts | 182° |
| 2026-05-07 10:21 | 38.04022 | -7.61468 | 15874 ft | 359 kts | 182° |
| 2026-05-07 10:21 | 38.01537 | -7.61463 | 15073 ft | 356 kts | 181° |
| 2026-05-07 10:21 | 37.99082 | -7.61454 | 14338 ft | 352 kts | 181° |
| 2026-05-07 10:22 | 37.96651 | -7.61458 | 13647 ft | 348 kts | 181° |
| 2026-05-07 10:22 | 37.94247 | -7.61454 | 12949 ft | 343 kts | 181° |
| 2026-05-07 10:22 | 37.91902 | -7.61457 | 12236 ft | 340 kts | 181° |
| 2026-05-07 10:22 | 37.89553 | -7.61456 | 11537 ft | 336 kts | 181° |
| 2026-05-07 10:23 | 37.87265 | -7.61468 | 11189 ft | 318 kts | 181° |
| 2026-05-07 10:23 | 37.85137 | -7.61469 | 10955 ft | 296 kts | 181° |
| 2026-05-07 10:23 | 37.83111 | -7.61474 | 10582 ft | 287 kts | 181° |
| 2026-05-07 10:23 | 37.81115 | -7.61476 | 10022 ft | 287 kts | 181° |
| 2026-05-07 10:24 | 37.79123 | -7.61476 | 9542 ft | 285 kts | 180° |
| 2026-05-07 10:24 | 37.77143 | -7.61464 | 9044 ft | 285 kts | 180° |
| 2026-05-07 10:24 | 37.75169 | -7.61462 | 8544 ft | 283 kts | 180° |
| 2026-05-07 10:24 | 37.73242 | -7.61466 | 8129 ft | 277 kts | 180° |
| 2026-05-07 10:25 | 37.71307 | -7.61465 | 7972 ft | 282 kts | 180° |
| 2026-05-07 10:25 | 37.69353 | -7.61466 | 7932 ft | 280 kts | 180° |
| 2026-05-07 10:25 | 37.67402 | -7.61466 | 7934 ft | 280 kts | 180° |
| 2026-05-07 10:25 | 37.65459 | -7.61462 | 7935 ft | 279 kts | 180° |
| 2026-05-07 10:26 | 37.63520 | -7.61466 | 7934 ft | 279 kts | 180° |
| 2026-05-07 10:26 | 37.61576 | -7.61470 | 7935 ft | 279 kts | 180° |
| 2026-05-07 10:26 | 37.59632 | -7.61470 | 7937 ft | 279 kts | 180° |
| 2026-05-07 10:26 | 37.57698 | -7.61468 | 7938 ft | 278 kts | 180° |
| 2026-05-07 10:27 | 37.55758 | -7.61468 | 7935 ft | 279 kts | 180° |
| 2026-05-07 10:27 | 37.53843 | -7.61470 | 7935 ft | 278 kts | 180° |
| 2026-05-07 10:27 | 37.51902 | -7.61476 | 7935 ft | 279 kts | 180° |
| 2026-05-07 10:27 | 37.49959 | -7.61481 | 7935 ft | 279 kts | 180° |
| 2026-05-07 10:28 | 37.48018 | -7.61477 | 7933 ft | 279 kts | 180° |
| 2026-05-07 10:28 | 37.46078 | -7.61474 | 7933 ft | 279 kts | 179° |
| 2026-05-07 10:28 | 37.44132 | -7.61470 | 7936 ft | 279 kts | 180° |
| 2026-05-07 10:28 | 37.42190 | -7.61463 | 7934 ft | 280 kts | 180° |
| 2026-05-07 10:29 | 37.40252 | -7.61465 | 7934 ft | 279 kts | 180° |
| 2026-05-07 10:29 | 37.38303 | -7.61474 | 7933 ft | 280 kts | 180° |
| 2026-05-07 10:29 | 37.36364 | -7.61469 | 7937 ft | 279 kts | 180° |
| 2026-05-07 10:30 | 37.32506 | -7.61471 | 7933 ft | 279 kts | 180° |
| 2026-05-07 10:30 | 37.30566 | -7.61480 | 7903 ft | 278 kts | 180° |
| 2026-05-07 10:30 | 37.28648 | -7.61478 | 7599 ft | 276 kts | 180° |
| 2026-05-07 10:30 | 37.26879 | -7.61476 | 7381 ft | 265 kts | 180° |
| 2026-05-07 10:31 | 37.25105 | -7.61473 | 7225 ft | 245 kts | 180° |
| 2026-05-07 10:31 | 37.23447 | -7.61468 | 6937 ft | 235 kts | 180° |
| 2026-05-07 10:31 | 37.21823 | -7.61467 | 6483 ft | 232 kts | 180° |
| 2026-05-07 10:31 | 37.20205 | -7.61471 | 6070 ft | 233 kts | 179° |
| 2026-05-07 10:32 | 37.18597 | -7.61460 | 5700 ft | 229 kts | 180° |
| 2026-05-07 10:32 | 37.17006 | -7.61464 | 5234 ft | 229 kts | 180° |
| 2026-05-07 10:32 | 37.15416 | -7.61467 | 4807 ft | 228 kts | 181° |
| 2026-05-07 10:32 | 37.13851 | -7.61479 | 4422 ft | 227 kts | 181° |
| 2026-05-07 10:33 | 37.12299 | -7.61482 | 4215 ft | 217 kts | 180° |
| 2026-05-07 10:33 | 37.10809 | -7.61479 | 4067 ft | 211 kts | 180° |
| 2026-05-07 10:33 | 37.09361 | -7.61481 | 3984 ft | 207 kts | 180° |
| 2026-05-07 10:33 | 37.07902 | -7.61709 | 3994 ft | 209 kts | 197° |
| 2026-05-07 10:34 | 37.06557 | -7.62388 | 3985 ft | 211 kts | 205° |
| 2026-05-07 10:34 | 37.05224 | -7.63143 | 3987 ft | 210 kts | 205° |
| 2026-05-07 10:34 | 37.03891 | -7.63893 | 3990 ft | 209 kts | 205° |
| 2026-05-07 10:34 | 37.02612 | -7.64607 | 3984 ft | 190 kts | 204° |
| 2026-05-07 10:35 | 37.01412 | -7.65259 | 3994 ft | 189 kts | 204° |
| 2026-05-07 10:35 | 37.00264 | -7.65890 | 3991 ft | 173 kts | 204° |
| 2026-05-07 10:35 | 36.99193 | -7.66482 | 4004 ft | 169 kts | 204° |
| 2026-05-07 10:35 | 36.98223 | -7.67270 | 3991 ft | 167 kts | 230° |
| 2026-05-07 10:36 | 36.97743 | -7.68574 | 3987 ft | 166 kts | 260° |
| 2026-05-07 10:36 | 36.97717 | -7.70028 | 3988 ft | 168 kts | 274° |
| 2026-05-07 10:36 | 36.97878 | -7.71476 | 3874 ft | 168 kts | 279° |
| 2026-05-07 10:36 | 36.98086 | -7.72903 | 3655 ft | 166 kts | 279° |
| 2026-05-07 10:37 | 36.98280 | -7.74324 | 3435 ft | 166 kts | 278° |
| 2026-05-07 10:37 | 36.98486 | -7.75724 | 3216 ft | 163 kts | 280° |
| 2026-05-07 10:37 | 36.98683 | -7.77127 | 2995 ft | 164 kts | 279° |
| 2026-05-07 10:37 | 36.98876 | -7.78506 | 2792 ft | 161 kts | 278° |
| 2026-05-07 10:38 | 36.99075 | -7.79882 | 2568 ft | 161 kts | 279° |
| 2026-05-07 10:38 | 36.99270 | -7.81263 | 2347 ft | 160 kts | 278° |
| 2026-05-07 10:38 | 36.99466 | -7.82638 | 2141 ft | 161 kts | 279° |
| 2026-05-07 10:38 | 36.99658 | -7.83999 | 1923 ft | 159 kts | 278° |
| 2026-05-07 10:39 | 36.99850 | -7.85353 | 1707 ft | 158 kts | 276° |
| 2026-05-07 10:39 | 37.00039 | -7.86704 | 1500 ft | 155 kts | 278° |
| 2026-05-07 10:39 | 37.00220 | -7.87953 | 1295 ft | 135 kts | 277° |
| 2026-05-07 10:39 | 37.00373 | -7.89032 | 1122 ft | 119 kts | 277° |
| 2026-05-07 10:40 | 37.00516 | -7.90053 | 973 ft | 121 kts | 277° |
| 2026-05-07 10:40 | 37.00659 | -7.91079 | 822 ft | 119 kts | 277° |
| 2026-05-07 10:40 | 37.00811 | -7.92103 | 717 ft | 120 kts | 278° |
| 2026-05-07 10:40 | 37.00966 | -7.93132 | 578 ft | 121 kts | 277° |
| 2026-05-07 10:41 | 37.01099 | -7.94156 | 369 ft | 120 kts | 277° |
| 2026-05-07 10:41 | 37.01246 | -7.95182 | 169 ft | 120 kts | 278° |
| 2026-05-07 10:41 | 37.01394 | -7.96219 | 30 ft | 120 kts | 278° |
| 2026-05-07 10:41 | 37.01524 | -7.97124 | 20 ft | 83 kts | 280° |
| 2026-05-07 10:42 | 37.01602 | -7.97672 | 20 ft | 57 kts | 281° |
| 2026-05-07 10:42 | 37.01644 | -7.97855 | 22 ft | 9 kts | 331° |
| 2026-05-07 10:42 | 37.01714 | -7.97826 | 23 ft | 14 kts | 37° |
| 2026-05-07 10:42 | 37.01740 | -7.97777 | 20 ft | 0 kts | 64° |
| 2026-05-07 10:44 | 37.01758 | -7.97728 | 23 ft | 12 kts | 67° |
| 2026-05-07 10:44 | 37.01769 | -7.97602 | 20 ft | 15 kts | 96° |
| 2026-05-07 10:44 | 37.01762 | -7.97519 | 20 ft | 12 kts | 99° |
| 2026-05-07 10:45 | 37.01744 | -7.97383 | 22 ft | 20 kts | 99° |
| 2026-05-07 10:45 | 37.01715 | -7.97188 | 23 ft | 26 kts | 101° |
| 2026-05-07 10:45 | 37.01682 | -7.96977 | 22 ft | 16 kts | 101° |
| 2026-05-07 10:45 | 37.01730 | -7.96900 | 23 ft | 13 kts | 15° |
| 2026-05-07 10:46 | 37.01820 | -7.96865 | 20 ft | 6 kts | 43° |
| 2026-05-07 10:46 | 37.01825 | -7.96789 | 20 ft | 12 kts | 96° |
| 2026-05-07 10:46 | 37.01830 | -7.96713 | 23 ft | 5 kts | 25° |
| 2026-05-07 10:46 | 37.01880 | -7.96698 | 20 ft | 4 kts | 10° |
| 2026-05-07 10:47 | 37.01897 | -7.96694 | 20 ft | 2 kts | 10° |
| 2026-05-07 10:47 | 37.01899 | -7.96694 | 20 ft | 0 kts | 11° |